createdAt,value
2017-07-26T00:01:14.952Z,98845.55
2017-07-26T00:03:42.564Z,98841.07
2017-07-26T00:06:10.171Z,98846.25
2017-07-26T00:08:37.873Z,98849.92
2017-07-26T00:11:05.530Z,98849.95
2017-07-26T00:13:33.150Z,98843.09
2017-07-26T00:16:00.821Z,98844.73
2017-07-26T00:18:28.456Z,98842.09
2017-07-26T00:20:56.095Z,98840.03
2017-07-26T00:23:23.774Z,98839.62
2017-07-26T00:25:51.389Z,98844.76
2017-07-26T00:28:19.074Z,98847.02
2017-07-26T00:30:46.744Z,98849.92
2017-07-26T00:33:14.359Z,98854.64
2017-07-26T00:35:41.985Z,98849.57
2017-07-26T00:38:09.678Z,98856.41
2017-07-26T00:40:37.330Z,98857.55
2017-07-26T00:43:04.953Z,98870.02
2017-07-26T00:45:32.617Z,98871.98
2017-07-26T00:48:00.237Z,98873.33
2017-07-26T00:50:27.860Z,98876.88
2017-07-26T00:52:55.530Z,98871.34
2017-07-26T00:55:23.153Z,98864.08
2017-07-26T00:57:50.777Z,98872.17
2017-07-26T01:00:18.461Z,98865.64
2017-07-26T01:02:46.073Z,98867.77
2017-07-26T01:05:13.683Z,98867.20
2017-07-26T01:07:41.373Z,98855.64
2017-07-26T01:10:09.007Z,98858.57
2017-07-26T01:12:36.641Z,98855.25
2017-07-26T01:15:04.327Z,98863.57
2017-07-26T01:17:31.963Z,98861.56
2017-07-26T01:19:59.582Z,98866.03
2017-07-26T01:22:27.459Z,98857.42
2017-07-26T01:24:55.778Z,98852.73
2017-07-26T01:27:23.454Z,98847.31
2017-07-26T01:29:51.157Z,98853.47
2017-07-26T01:32:18.796Z,98846.80
2017-07-26T01:34:46.430Z,98849.95
2017-07-26T01:37:14.111Z,98850.89
2017-07-26T01:39:41.750Z,98854.77
2017-07-26T01:42:09.369Z,98860.05
2017-07-26T01:44:37.053Z,98852.34
2017-07-26T01:47:10.120Z,98845.55
2017-07-26T01:49:37.821Z,98852.13
2017-07-26T01:52:05.450Z,98850.98
2017-07-26T01:54:33.055Z,98844.50
2017-07-26T01:57:00.735Z,98850.36
2017-07-26T01:59:28.367Z,98859.02
2017-07-26T02:01:55.984Z,98850.06
2017-07-26T02:04:23.692Z,98853.98
2017-07-26T02:06:51.311Z,98859.63
2017-07-26T02:09:18.957Z,98854.97
2017-07-26T02:11:46.643Z,98848.61
2017-07-26T02:14:14.255Z,98851.83
2017-07-26T02:16:41.879Z,98868.19
2017-07-26T02:19:09.577Z,98871.81
2017-07-26T02:21:37.197Z,98869.39
2017-07-26T02:24:04.823Z,98870.73
2017-07-26T02:26:32.501Z,98870.41
2017-07-26T02:29:00.136Z,98871.30
2017-07-26T02:31:27.754Z,98884.63
2017-07-26T02:33:55.443Z,98884.31
2017-07-26T02:36:23.072Z,98879.38
2017-07-26T02:38:50.706Z,98874.58
2017-07-26T02:41:18.390Z,98875.42
2017-07-26T02:43:46.009Z,98877.47
2017-07-26T02:46:13.652Z,98872.20
2017-07-26T02:48:41.315Z,98876.66
2017-07-26T02:51:08.950Z,98881.02
2017-07-26T02:53:36.584Z,98883.39
2017-07-26T02:56:04.276Z,98885.41
2017-07-26T02:58:31.887Z,98889.36
2017-07-26T03:00:59.505Z,98895.07
2017-07-26T03:03:27.181Z,98895.84
2017-07-26T03:05:54.813Z,98908.30
2017-07-26T03:08:22.437Z,98902.19
2017-07-26T03:10:50.259Z,98898.84
2017-07-26T03:13:17.866Z,98891.89
2017-07-26T03:15:45.485Z,98899.45
2017-07-26T03:18:13.171Z,98906.98
2017-07-26T03:20:40.793Z,98905.52
2017-07-26T03:23:08.420Z,98908.82
2017-07-26T03:25:36.102Z,98902.95
2017-07-26T03:28:03.742Z,98905.95
2017-07-26T03:30:31.371Z,98909.52
2017-07-26T03:32:59.057Z,98906.02
2017-07-26T03:35:26.673Z,98899.94
2017-07-26T03:37:54.339Z,98901.81
2017-07-26T03:40:22.016Z,98909.95
2017-07-26T03:42:49.625Z,98910.91
2017-07-26T03:45:17.236Z,98903.69
2017-07-26T03:47:44.915Z,98901.74
2017-07-26T03:50:12.537Z,98895.19
2017-07-26T03:52:40.156Z,98886.45
2017-07-26T03:55:07.867Z,98884.77
2017-07-26T03:57:35.522Z,98890.36
2017-07-26T04:00:03.172Z,98891.44
2017-07-26T04:02:30.860Z,98882.83
2017-07-26T04:04:58.479Z,98883.58
2017-07-26T04:07:26.100Z,98877.02
2017-07-26T04:09:53.945Z,98877.13
2017-07-26T04:12:21.567Z,98876.62
2017-07-26T04:14:49.213Z,98881.09
2017-07-26T04:17:16.899Z,98873.80
2017-07-26T04:19:44.667Z,98880.69
2017-07-26T04:22:12.291Z,98885.36
2017-07-26T04:24:39.970Z,98885.93
2017-07-26T04:27:07.601Z,98876.86
2017-07-26T04:29:35.228Z,98877.01
2017-07-26T04:32:02.911Z,98878.38
2017-07-26T04:34:30.535Z,98881.54
2017-07-26T04:36:58.152Z,98880.56
2017-07-26T04:39:25.850Z,98887.94
2017-07-26T04:41:53.499Z,98883.63
2017-07-26T04:44:21.124Z,98883.42
2017-07-26T04:46:48.824Z,98895.11
2017-07-26T04:49:16.443Z,98892.80
2017-07-26T04:51:44.067Z,98895.52
2017-07-26T04:54:11.748Z,98891.58
2017-07-26T04:56:39.373Z,98892.95
2017-07-26T04:59:06.987Z,98891.20
2017-07-26T05:01:34.660Z,98885.08
2017-07-26T05:04:02.272Z,98888.84
2017-07-26T05:06:29.890Z,98876.39
2017-07-26T05:08:57.554Z,98873.35
2017-07-26T05:11:25.233Z,98867.08
2017-07-26T05:13:52.837Z,98878.07
2017-07-26T05:16:20.523Z,98884.61
2017-07-26T05:18:48.135Z,98872.95
2017-07-26T05:21:15.746Z,98873.81
2017-07-26T05:23:43.427Z,98874.66
2017-07-26T05:26:11.042Z,98871.80
2017-07-26T05:28:38.635Z,98869.94
2017-07-26T05:31:06.312Z,98867.13
2017-07-26T05:33:33.930Z,98874.32
2017-07-26T05:36:01.535Z,98871.00
2017-07-26T05:38:29.243Z,98875.98
2017-07-26T05:40:56.877Z,98865.64
2017-07-26T05:43:24.470Z,98866.66
2017-07-26T05:45:52.127Z,98863.25
2017-07-26T05:48:19.742Z,98855.89
2017-07-26T05:50:47.420Z,98860.28
2017-07-26T05:53:15.096Z,98848.52
2017-07-26T05:55:42.720Z,98855.59
2017-07-26T05:58:10.337Z,98861.67
2017-07-26T06:00:37.981Z,98864.48
2017-07-26T06:03:05.595Z,98859.30
2017-07-26T06:05:33.217Z,98858.67
2017-07-26T06:08:00.881Z,98856.75
2017-07-26T06:10:28.500Z,98855.59
2017-07-26T06:12:56.130Z,98844.02
2017-07-26T06:15:23.817Z,98842.33
2017-07-26T06:17:51.431Z,98841.02
2017-07-26T06:20:19.053Z,98846.30
2017-07-26T06:22:46.751Z,98836.82
2017-07-26T06:25:14.345Z,98838.53
2017-07-26T06:27:41.975Z,98836.89
2017-07-26T06:30:09.640Z,98835.56
2017-07-26T06:32:37.441Z,98825.38
2017-07-26T06:35:05.058Z,98823.70
2017-07-26T06:37:32.850Z,98816.77
2017-07-26T06:40:00.456Z,98805.82
2017-07-26T06:42:28.105Z,98811.58
2017-07-26T06:44:55.754Z,98808.73
2017-07-26T06:47:23.376Z,98805.00
2017-07-26T06:49:51.037Z,98798.96
2017-07-26T06:52:18.695Z,98802.98
2017-07-26T06:54:46.310Z,98793.02
2017-07-26T06:57:13.932Z,98798.73
2017-07-26T06:59:41.607Z,98785.49
2017-07-26T07:02:09.224Z,98783.20
2017-07-26T07:04:36.833Z,98781.86
2017-07-26T07:07:04.523Z,98780.84
2017-07-26T07:09:32.151Z,98781.08
2017-07-26T07:11:59.762Z,98785.97
2017-07-26T07:14:27.477Z,98773.55
2017-07-26T07:16:55.096Z,98770.46
2017-07-26T07:19:22.753Z,98771.50
2017-07-26T07:21:50.424Z,98777.23
2017-07-26T07:24:18.024Z,98772.77
2017-07-26T07:26:45.640Z,98763.16
2017-07-26T07:29:13.317Z,98762.77
2017-07-26T07:31:40.919Z,98756.56
2017-07-26T07:34:08.526Z,98759.77
2017-07-26T07:36:36.262Z,98762.81
2017-07-26T07:39:03.964Z,98763.05
2017-07-26T07:41:31.642Z,98757.01
2017-07-26T07:43:59.459Z,98753.94
2017-07-26T07:46:27.090Z,98749.59
2017-07-26T07:48:54.686Z,98748.88
2017-07-26T07:51:22.364Z,98741.34
2017-07-26T07:53:49.971Z,98742.20
2017-07-26T07:56:17.587Z,98749.39
2017-07-26T07:58:45.253Z,98748.51
2017-07-26T08:01:12.858Z,98746.64
2017-07-26T08:03:40.469Z,98746.22
2017-07-26T08:06:08.140Z,98749.54
2017-07-26T08:08:35.735Z,98751.82
2017-07-26T08:11:03.461Z,98751.20
2017-07-26T08:13:31.136Z,98739.61
2017-07-26T08:15:58.748Z,98732.23
2017-07-26T08:18:26.349Z,98741.22
2017-07-26T08:20:54.018Z,98737.97
2017-07-26T08:23:21.638Z,98730.86
2017-07-26T08:25:49.249Z,98731.70
2017-07-26T08:28:16.936Z,98737.40
2017-07-26T08:30:44.549Z,98739.60
2017-07-26T08:33:12.157Z,98735.33
2017-07-26T08:35:40.019Z,98734.16
2017-07-26T08:38:07.632Z,98723.16
2017-07-26T08:40:35.251Z,98731.91
2017-07-26T08:43:02.927Z,98724.52
2017-07-26T08:45:30.531Z,98727.45
2017-07-26T08:47:58.133Z,98729.67
2017-07-26T08:50:25.805Z,98723.54
2017-07-26T08:52:53.421Z,98729.27
2017-07-26T08:55:21.032Z,98723.89
2017-07-26T08:57:48.710Z,98727.19
2017-07-26T09:00:16.317Z,98721.89
2017-07-26T09:02:43.997Z,98723.36
2017-07-26T09:05:11.668Z,98720.80
2017-07-26T09:07:39.289Z,98714.27
2017-07-26T09:10:06.952Z,98710.81
2017-07-26T09:12:34.609Z,98719.89
2017-07-26T09:15:02.209Z,98712.36
2017-07-26T09:17:29.822Z,98706.86
2017-07-26T09:19:57.494Z,98713.98
2017-07-26T09:22:25.085Z,98705.95
2017-07-26T09:24:52.699Z,98709.14
2017-07-26T09:27:20.378Z,98707.66
2017-07-26T09:29:47.987Z,98703.70
2017-07-26T09:32:15.604Z,98709.26
2017-07-26T09:34:43.274Z,98697.48
2017-07-26T09:37:10.866Z,98690.70
2017-07-26T09:39:38.476Z,98699.97
2017-07-26T09:42:06.123Z,98696.27
2017-07-26T09:44:34.031Z,98692.96
2017-07-26T09:47:01.648Z,98699.23
2017-07-26T09:49:29.337Z,98698.47
2017-07-26T09:51:56.978Z,98701.25
2017-07-26T09:54:24.592Z,98702.00
2017-07-26T09:56:52.265Z,98699.45
2017-07-26T09:59:19.889Z,98696.37
2017-07-26T10:01:47.506Z,98691.72
2017-07-26T10:04:15.172Z,98682.47
2017-07-26T10:06:42.786Z,98683.00
2017-07-26T10:09:10.403Z,98680.81
2017-07-26T10:11:38.064Z,98674.52
2017-07-26T10:14:05.686Z,98679.89
2017-07-26T10:16:33.325Z,98679.44
2017-07-26T10:19:01.160Z,98676.00
2017-07-26T10:21:28.772Z,98677.06
2017-07-26T10:23:56.375Z,98668.95
2017-07-26T10:26:24.022Z,98665.34
2017-07-26T10:28:51.655Z,98661.94
2017-07-26T10:31:19.277Z,98655.11
2017-07-26T10:33:46.928Z,98665.82
2017-07-26T10:36:14.538Z,98666.66
2017-07-26T10:38:42.141Z,98660.78
2017-07-26T10:41:09.823Z,98653.70
2017-07-26T10:43:37.451Z,98650.48
2017-07-26T10:46:05.125Z,98650.52
2017-07-26T10:48:32.816Z,98646.20
2017-07-26T10:51:00.415Z,98640.70
2017-07-26T10:53:28.101Z,98644.81
2017-07-26T10:55:55.783Z,98644.30
2017-07-26T10:58:23.381Z,98641.34
2017-07-26T11:00:50.993Z,98639.91
2017-07-26T11:03:18.657Z,98651.97
2017-07-26T11:05:46.289Z,98652.06
2017-07-26T11:08:13.889Z,98650.89
2017-07-26T11:10:41.532Z,98658.88
2017-07-26T11:13:09.146Z,98656.88
2017-07-26T11:15:36.750Z,98655.21
2017-07-26T11:18:04.488Z,98651.63
2017-07-26T11:20:32.166Z,98648.52
2017-07-26T11:22:59.783Z,98642.41
2017-07-26T11:25:27.400Z,98651.68
2017-07-26T11:27:55.068Z,98640.77
2017-07-26T11:30:22.692Z,98641.80
2017-07-26T11:32:50.314Z,98650.45
2017-07-26T11:35:18.158Z,98651.47
2017-07-26T11:37:45.979Z,98644.53
2017-07-26T11:40:13.601Z,98644.66
2017-07-26T11:42:41.276Z,98642.87
2017-07-26T11:45:08.893Z,98640.65
2017-07-26T11:47:36.556Z,98638.25
2017-07-26T11:50:04.225Z,98635.13
2017-07-26T11:52:31.847Z,98636.87
2017-07-26T11:54:59.456Z,98629.19
2017-07-26T11:57:27.132Z,98624.95
2017-07-26T11:59:54.749Z,98625.15
2017-07-26T12:02:22.396Z,98626.58
2017-07-26T12:04:50.225Z,98631.21
2017-07-26T12:07:17.824Z,98630.26
2017-07-26T12:09:45.472Z,98626.25
2017-07-26T12:12:13.136Z,98624.20
2017-07-26T12:14:40.761Z,98629.02
2017-07-26T12:17:08.387Z,98625.34
2017-07-26T12:19:36.053Z,98622.44
2017-07-26T12:22:03.648Z,98624.48
2017-07-26T12:24:31.249Z,98618.19
2017-07-26T12:26:58.915Z,98619.08
2017-07-26T12:29:26.520Z,98620.16
2017-07-26T12:31:54.156Z,98629.80
2017-07-26T12:34:21.800Z,98614.46
2017-07-26T12:36:49.456Z,98615.17
2017-07-26T12:39:17.075Z,98607.93
2017-07-26T12:41:44.838Z,98614.14
2017-07-26T12:44:12.478Z,98604.30
2017-07-26T12:46:40.128Z,98603.84
2017-07-26T12:49:07.841Z,98606.72
2017-07-26T12:51:35.525Z,98620.11
2017-07-26T12:54:04.773Z,98612.45
2017-07-26T12:56:32.812Z,98610.16
2017-07-26T12:59:00.534Z,98622.37
2017-07-26T13:01:28.526Z,98617.99
2017-07-26T13:03:56.260Z,98610.97
2017-07-26T13:06:23.873Z,98617.80
2017-07-26T13:08:51.493Z,98611.60
2017-07-26T13:11:19.236Z,98613.64
2017-07-26T13:13:46.877Z,98607.77
2017-07-26T13:16:14.518Z,98606.31
2017-07-26T13:18:42.249Z,98604.70
2017-07-26T13:21:09.833Z,98599.75
2017-07-26T13:23:37.448Z,98592.50
2017-07-26T13:26:05.165Z,98585.72
2017-07-26T13:28:32.790Z,98591.61
2017-07-26T13:31:00.454Z,98599.36
2017-07-26T13:33:28.137Z,98605.61
2017-07-26T13:35:55.753Z,98596.65
2017-07-26T13:38:23.383Z,98599.04
2017-07-26T13:40:51.039Z,98612.76
2017-07-26T13:43:18.664Z,98603.38
2017-07-26T13:45:46.272Z,98611.09
2017-07-26T13:48:13.937Z,98624.27
2017-07-26T13:50:41.541Z,98624.55
2017-07-26T13:53:09.203Z,98623.84
2017-07-26T13:55:36.897Z,98625.41
2017-07-26T13:58:04.498Z,98612.30
2017-07-26T14:00:32.102Z,98597.72
2017-07-26T14:02:59.764Z,98583.22
2017-07-26T14:05:27.373Z,98578.88
2017-07-26T14:07:54.975Z,98570.65
2017-07-26T14:10:22.638Z,98566.06
2017-07-26T14:12:50.267Z,98556.81
2017-07-26T14:15:17.899Z,98549.53
2017-07-26T14:17:45.555Z,98548.09
2017-07-26T14:20:13.172Z,98553.37
2017-07-26T14:22:40.795Z,98563.61
2017-07-26T14:25:08.593Z,98565.69
2017-07-26T14:27:36.228Z,98571.73
2017-07-26T14:30:03.856Z,98574.66
2017-07-26T14:32:31.544Z,98579.33
2017-07-26T14:35:03.906Z,98575.20
2017-07-26T14:37:31.524Z,98564.62
2017-07-26T14:39:59.144Z,98550.58
2017-07-26T14:42:26.753Z,98545.45
2017-07-26T14:44:54.436Z,98536.03
2017-07-26T14:47:22.097Z,98534.72
2017-07-26T14:49:49.706Z,98533.73
2017-07-26T14:52:17.629Z,98523.23
2017-07-26T14:54:45.248Z,98513.45
2017-07-26T14:57:12.862Z,98501.55
2017-07-26T14:59:40.572Z,98498.51
2017-07-26T15:02:08.184Z,98495.10
2017-07-26T15:04:35.776Z,98523.25
2017-07-26T15:07:03.608Z,98545.47
2017-07-26T15:09:31.239Z,98562.07
2017-07-26T15:11:58.843Z,98572.41
2017-07-26T15:14:26.510Z,98584.50
2017-07-26T15:16:54.121Z,98606.41
2017-07-26T15:19:21.715Z,98598.14
2017-07-26T15:21:49.384Z,98593.20
2017-07-26T15:24:16.991Z,98583.95
2017-07-26T15:26:44.592Z,98599.18
2017-07-26T15:29:12.353Z,98614.16
2017-07-26T15:31:39.965Z,98634.51
2017-07-26T15:34:07.753Z,98655.97
2017-07-26T15:36:35.396Z,98695.13
2017-07-26T15:39:03.000Z,98748.34
2017-07-26T15:41:30.728Z,98766.94
2017-07-26T15:43:58.541Z,98774.20
2017-07-26T15:46:26.168Z,98724.83
2017-07-26T15:48:53.780Z,98640.90
2017-07-26T15:51:21.500Z,98608.22
2017-07-26T15:53:49.104Z,98614.16
2017-07-26T15:56:16.761Z,98617.41
2017-07-26T15:58:44.424Z,98600.80
2017-07-26T16:01:12.023Z,98593.13
2017-07-26T16:03:39.612Z,98595.52
2017-07-26T16:06:07.670Z,98596.14
2017-07-26T16:08:35.366Z,98614.53
2017-07-26T16:11:03.060Z,98629.16
2017-07-26T16:13:30.706Z,98623.52
2017-07-26T16:15:58.329Z,98623.91
2017-07-26T16:18:25.935Z,98638.28
2017-07-26T16:20:53.582Z,98650.48
2017-07-26T16:23:21.175Z,98645.66
2017-07-26T16:25:48.827Z,98647.45
2017-07-26T16:28:16.493Z,98644.06
2017-07-26T16:30:44.101Z,98644.16
2017-07-26T16:33:11.711Z,98646.66
2017-07-26T16:35:39.382Z,98647.13
2017-07-26T16:38:07.000Z,98654.42
2017-07-26T16:40:34.707Z,98668.88
2017-07-26T16:43:02.359Z,98687.39
2017-07-26T16:45:29.976Z,98694.70
2017-07-26T16:47:57.604Z,98688.42
2017-07-26T16:50:25.260Z,98687.80
2017-07-26T16:52:52.877Z,98694.31
2017-07-26T16:55:20.478Z,98700.25
2017-07-26T16:57:48.172Z,98709.23
2017-07-26T17:00:15.766Z,98715.42
2017-07-26T17:02:43.366Z,98718.55
2017-07-26T17:05:11.232Z,98724.81
2017-07-26T17:07:38.831Z,98729.98
2017-07-26T17:10:06.416Z,98733.69
2017-07-26T17:12:34.174Z,98725.86
2017-07-26T17:15:01.838Z,98732.88
2017-07-26T17:17:29.495Z,98749.06
2017-07-26T17:19:57.367Z,98754.38
2017-07-26T17:22:25.023Z,98751.73
2017-07-26T17:24:52.705Z,98765.70
2017-07-26T17:27:20.585Z,98769.63
2017-07-26T17:29:48.403Z,98775.82
2017-07-26T17:32:16.087Z,98785.87
2017-07-26T17:34:43.958Z,98781.27
2017-07-26T17:37:11.610Z,98779.26
2017-07-26T17:39:39.472Z,98780.60
2017-07-26T17:42:07.138Z,98778.78
2017-07-26T17:44:34.804Z,98769.08
2017-07-26T17:47:02.495Z,98774.33
2017-07-26T17:49:30.157Z,98773.59
2017-07-26T17:51:57.979Z,98778.17
2017-07-26T17:54:25.843Z,98773.41
2017-07-26T17:56:53.931Z,98764.64
2017-07-26T17:59:21.901Z,98762.68
2017-07-26T18:01:49.849Z,98781.87
2017-07-26T18:04:17.740Z,98795.32
2017-07-26T18:06:45.580Z,98796.06
2017-07-26T18:09:13.326Z,98801.45
2017-07-26T18:11:41.139Z,98804.81
2017-07-26T18:14:08.781Z,98811.88
2017-07-26T18:16:36.459Z,98816.81
2017-07-26T18:19:04.358Z,98808.72
2017-07-26T18:21:32.202Z,98815.57
2017-07-26T18:24:00.045Z,98815.05
2017-07-26T18:26:27.698Z,98808.47
2017-07-26T18:28:55.288Z,98817.97
2017-07-26T18:31:22.892Z,98835.10
2017-07-26T18:33:50.917Z,98849.75
2017-07-26T18:36:18.763Z,98862.58
2017-07-26T18:38:46.451Z,98869.00
2017-07-26T18:41:14.305Z,98866.59
2017-07-26T18:43:42.036Z,98875.06
2017-07-26T18:46:10.000Z,98861.18
2017-07-26T18:48:37.869Z,98853.00
2017-07-26T18:51:05.684Z,98834.48
2017-07-26T18:53:33.439Z,98827.32
2017-07-26T18:56:01.499Z,98822.40
2017-07-26T18:58:29.217Z,98835.97
2017-07-26T19:00:56.880Z,98846.04
2017-07-26T19:03:24.673Z,98851.70
2017-07-26T19:05:52.567Z,98854.08
2017-07-26T19:08:20.231Z,98850.03
2017-07-26T19:10:48.301Z,98840.08
2017-07-26T19:13:16.039Z,98841.84
2017-07-26T19:15:43.690Z,98862.68
2017-07-26T19:18:11.796Z,98877.06
2017-07-26T19:20:39.466Z,98874.64
2017-07-26T19:23:07.374Z,98867.14
2017-07-26T19:25:35.032Z,98854.60
2017-07-26T19:28:03.046Z,98854.67
2017-07-26T19:30:30.936Z,98861.11
2017-07-26T19:32:58.608Z,98864.95
2017-07-26T19:35:26.253Z,98856.02
2017-07-26T19:37:53.899Z,98854.65
2017-07-26T19:40:21.778Z,98844.62
2017-07-26T19:42:49.432Z,98844.05
2017-07-26T19:45:17.287Z,98845.70
2017-07-26T19:47:45.028Z,98841.22
2017-07-26T19:50:12.842Z,98847.41
2017-07-26T19:52:40.510Z,98862.69
2017-07-26T19:55:08.354Z,98875.84
2017-07-26T19:57:36.094Z,98884.47
2017-07-26T20:00:03.885Z,98892.22
2017-07-26T20:02:33.150Z,98886.79
2017-07-26T20:05:01.275Z,98886.30
2017-07-26T20:07:28.935Z,98876.59
2017-07-26T20:09:56.641Z,98865.10
2017-07-26T20:12:25.303Z,98859.65
2017-07-26T20:14:54.442Z,98849.43
2017-07-26T20:17:22.168Z,98860.75
2017-07-26T20:19:49.779Z,98863.42
2017-07-26T20:22:17.456Z,98867.94
2017-07-26T20:24:45.040Z,98865.64
2017-07-26T20:27:13.049Z,98859.56
2017-07-26T20:29:40.727Z,98862.91
2017-07-26T20:32:08.313Z,98861.34
2017-07-26T20:34:35.910Z,98852.30
2017-07-26T20:37:03.746Z,98861.05
2017-07-26T20:39:31.352Z,98876.30
2017-07-26T20:41:58.958Z,98883.02
2017-07-26T20:44:26.606Z,98882.91
2017-07-26T20:46:54.194Z,98881.08
2017-07-26T20:49:21.789Z,98892.11
2017-07-26T20:51:49.433Z,98887.95
2017-07-26T20:54:17.057Z,98883.61
2017-07-26T20:56:44.680Z,98872.10
2017-07-26T20:59:12.698Z,98871.77
2017-07-26T21:01:40.414Z,98865.00
2017-07-26T21:04:08.091Z,98864.12
2017-07-26T21:06:36.097Z,98861.83
2017-07-26T21:09:04.579Z,98857.80
2017-07-26T21:11:32.813Z,98856.63
2017-07-26T21:14:01.337Z,98854.23
2017-07-26T21:16:29.070Z,98848.19
2017-07-26T21:18:58.262Z,98845.14
2017-07-26T21:21:26.372Z,98845.23
2017-07-26T21:23:54.441Z,98846.76
2017-07-26T21:26:22.682Z,98849.39
2017-07-26T21:28:50.794Z,98859.09
2017-07-26T21:31:18.641Z,98875.09
2017-07-26T21:33:46.250Z,98878.00
2017-07-26T21:36:13.908Z,98882.30
2017-07-26T21:38:41.642Z,98862.82
2017-07-26T21:41:09.304Z,98856.05
2017-07-26T21:43:36.969Z,98850.91
2017-07-26T21:46:04.621Z,98864.92
2017-07-26T21:48:32.290Z,98880.14
2017-07-26T21:51:00.158Z,98882.52
2017-07-26T21:53:27.823Z,98883.48
2017-07-26T21:55:55.663Z,98888.06
2017-07-26T21:58:23.329Z,98872.13
2017-07-26T22:00:51.018Z,98874.70
2017-07-26T22:03:18.790Z,98870.61
2017-07-26T22:05:46.528Z,98870.48
2017-07-26T22:08:14.551Z,98871.33
2017-07-26T22:10:42.486Z,98874.30
2017-07-26T22:13:10.146Z,98872.78
2017-07-26T22:15:37.806Z,98857.66
2017-07-26T22:18:05.517Z,98856.60
2017-07-26T22:20:33.540Z,98851.06
2017-07-26T22:23:01.375Z,98850.66
2017-07-26T22:25:29.276Z,98848.99
2017-07-26T22:27:57.214Z,98855.06
2017-07-26T22:30:24.882Z,98862.73
2017-07-26T22:32:52.669Z,98867.33
2017-07-26T22:35:20.311Z,98863.53
2017-07-26T22:37:48.178Z,98875.38
2017-07-26T22:40:15.920Z,98864.08
2017-07-26T22:42:43.921Z,98854.92
2017-07-26T22:45:11.804Z,98843.52
2017-07-26T22:47:39.550Z,98847.88
2017-07-26T22:50:07.330Z,98836.27
2017-07-26T22:52:34.993Z,98829.72
2017-07-26T22:55:02.701Z,98838.11
2017-07-26T22:57:30.688Z,98842.34
2017-07-26T22:59:58.304Z,98858.37
2017-07-26T23:02:25.899Z,98855.39
2017-07-26T23:04:53.548Z,98857.63
2017-07-26T23:07:21.221Z,98863.10
2017-07-26T23:09:48.862Z,98868.67
2017-07-26T23:12:16.514Z,98866.28
2017-07-26T23:14:44.120Z,98859.95
2017-07-26T23:17:11.731Z,98850.36
2017-07-26T23:19:39.400Z,98833.06
2017-07-26T23:22:06.995Z,98839.19
2017-07-26T23:24:34.825Z,98836.56
2017-07-26T23:27:02.642Z,98848.53
2017-07-26T23:29:30.387Z,98851.47
2017-07-26T23:31:58.197Z,98849.65
2017-07-26T23:34:25.844Z,98851.25
2017-07-26T23:36:53.438Z,98845.88
2017-07-26T23:39:21.037Z,98857.56
2017-07-26T23:41:48.847Z,98862.14
2017-07-26T23:44:16.471Z,98863.56
2017-07-26T23:46:44.092Z,98856.66
2017-07-26T23:49:11.754Z,98851.47
2017-07-26T23:51:39.415Z,98848.04
2017-07-26T23:54:07.029Z,98849.95
2017-07-26T23:56:34.877Z,98860.04
2017-07-26T23:59:02.843Z,98859.02
